Enchantment of the Seas — C6FZ7 — position and weather

sailwx.info

Track history (hours):
 
Tides and Currents Weather Stations Pressure Air Temp Water Temp Dewpoint Dewpoint Depression Visibility Wind Speed Wind Dir Waves Ship Positions

Enchantment of the Seas (Bahamas)

Last reported at 2015-Apr-28 11:22 UTC. Time now 2015-May-03 13:49 UTC.
Position N 26°48' W 079°11'.

Type: Passenger vessel. MMSI: 311733000.

Date/timePositionNaut miles runAvg speedWind from/ knotsBaromVisibWave heightAir tempDewpointWater temp
2015-Apr-28 11:22N 26°48' W 079°11'84 3.0
2015-Apr-27 07:33N 27°57' W 080°04'8118.9
2015-Apr-27 03:16N 26°49' W 079°14'1418.1
2015-Apr-27 02:31N 26°38' W 079°06'1515.1
2015-Apr-27 01:33N 26°28' W 078°54'1814.6
2015-Apr-27 00:21N 26°18' W 078°37'1114.4
2015-Apr-26 23:34N 26°11' W 078°27'35 7.0
2015-Apr-26 18:32N 25°50' W 077°56'0 0.0
2015-Apr-26 17:33N 25°50' W 077°56'0 0.0
2015-Apr-26 16:33N 25°50' W 077°56'0 0.0
2015-Apr-26 15:33N 25°50' W 077°56'0 0.0
2015-Apr-26 14:16N 25°50' W 077°56'0 0.0
2015-Apr-26 13:33N 25°50' W 077°56'0 0.0
2015-Apr-26 12:26N 25°50' W 077°56'1 1.4
2015-Apr-26 11:33N 25°50' W 077°55'11 9.1
2015-Apr-26 10:20N 25°51' W 077°43'  
2015-Apr-23 23:14N 26°49' W 079°24'6 9.2
2015-Apr-23 22:33N 26°44' W 079°20'  
2015-Apr-21 07:04N 26°29' W 078°56'15 0.5
2015-Apr-20 02:33N 26°40' W 079°08'  
Track history (hours):
 
Tides and Currents Weather Stations Pressure Air Temp Water Temp Dewpoint Dewpoint Depression Visibility Wind Speed Wind Dir Waves Ship Positions

Enchantment of the Seas (Bahamas)

Last reported at 2015-Apr-28 11:22 UTC. Time now 2015-May-03 13:49 UTC.
Position N 26°48' W 079°11'.

Type: Passenger vessel. MMSI: 311733000.

Date/timePositionNaut miles runAvg speedWind from/ knotsBaromVisibWave heightAir tempDewpointWater temp
2015-Apr-28 11:22N 26°48' W 079°11'84 3.0
2015-Apr-27 07:33N 27°57' W 080°04'8118.9
2015-Apr-27 03:16N 26°49' W 079°14'1418.1
2015-Apr-27 02:31N 26°38' W 079°06'1515.1
2015-Apr-27 01:33N 26°28' W 078°54'1814.6
2015-Apr-27 00:21N 26°18' W 078°37'1114.4
2015-Apr-26 23:34N 26°11' W 078°27'35 7.0
2015-Apr-26 18:32N 25°50' W 077°56'0 0.0
2015-Apr-26 17:33N 25°50' W 077°56'0 0.0
2015-Apr-26 16:33N 25°50' W 077°56'0 0.0
2015-Apr-26 15:33N 25°50' W 077°56'0 0.0
2015-Apr-26 14:16N 25°50' W 077°56'0 0.0
2015-Apr-26 13:33N 25°50' W 077°56'0 0.0
2015-Apr-26 12:26N 25°50' W 077°56'1 1.4
2015-Apr-26 11:33N 25°50' W 077°55'11 9.1
2015-Apr-26 10:20N 25°51' W 077°43'  
2015-Apr-23 23:14N 26°49' W 079°24'6 9.2
2015-Apr-23 22:33N 26°44' W 079°20'  
2015-Apr-21 07:04N 26°29' W 078°56'15 0.5
2015-Apr-20 02:33N 26°40' W 079°08'  

Dump ship's entire track history